Main page
METAR-TAF:

METAR-TAF

Airports :

Gökçeada Airport

Gökçeada, Turkey

latitude: 40-12-04N, longitude: 25-52-56E, elevation: 22 m

Current weather observation

The report was made 52 minutes ago, at 08:50 UTC
Wind 12 kt from variable directions
Temperature 25°C
Humidity 79%
Pressure 1012 hPa
Visibility 10 km or more
Scattered clouds at a height of 2500 ft
Broken clouds at a height of 9000 ft

METAR: LTFK 240850Z VRB12KT 9999 SCT025 BKN090 25/21 Q1012

Time: 12:42 (09:42 UTC)

Forecast

The report was made 2 hours and 2 minutes ago, at 07:40 UTC
Forecast valid from 24 at 09 UTC to 24 at 18 UTC
Wind 15 kt from the North
Visibility 10 km or more
Scattered clouds at a height of 3500 ft
Broken clouds at a height of 10000 ft

TAF: LTFK 240740Z 2409/2418 01015KT 9999 SCT035 BKN100

Weather observations and forecasts of more than 4000 airports (METAR and TAF reports).

The available stations are represented by yellow and red dots on the map.

Hover mouse over dot to see the name of the station.

Then click to see weather observations and forecasts.

To change the map : click on the green buttons with a black cross to zoom in, on the green button with a dash to zoom out, or on the green arrows for adjacent maps.


METAR-TAF: